Woensdrecht Air Base

EHWO · 北布拉班特省, 荷兰

罗盘
风向 的 风向 的 风向 到 风向 200° Woensdrecht Air Base 7/25
风: 6 kt, 2 beaufort

4 kt

4 kt
改变
0 6.000 12.000 18.000 24.000 30.000
OVC 21.000 ft
METAR EHWO 040955Z AUTO 20006KT 140V230 9999 OVC210 15/11 Q1020 BLU NOSIG

METAR Woensdrecht Air Base - EHWO/WOE

Woensdrecht Air Base是Bergen Op Zoom,荷兰中的中型机场。 该机场有一条跑道: 7/25. 该领域的国际民航组织标志是EHWO 它的国际航空运输协会代码是WOE.

这份报告是针对2022年10月4日 11:55, 当地时间在Woensdrecht Air Base进行的。

机场观察

风向为200°,速度为6 kt。 风向在140°和230°之间变化。

可见度为10 km 或者更多。

有乌云密布在21.000 ft的高度。 破损或更高的上限为21.000 ft。

温度和风寒是15 °C。 露点为11 °C,相对湿度为77%。 海平面上的气压为1020 hPa (QNH)。

白天

今天,太阳从07:48升起,在19:14降落。 这适用于Woensdrecht Air Base,世界夏令时可能有所不同。 当地时间与世界标准时间之间的时差为+2 小时。 夏令时目前正在进行中。

公司介绍

我们没有关于这个机场的公司信息。

体会

到Vliegles.nl去找飞行课程,跳伞和其他飞行体验。 浏览页面,了解Woensdrecht Air Base附近所有可用的活动。 你也可以使用搜索功能来寻找你所在地附近的特定飞行课程、跳伞或其他飞行体验。

跑道

Id 标题 侧风 逆风 侧风 %
7/25 067°-247° 4 kt 4 kt 73 %

逆风成分最大的方向会被突出显示,并用于横风计算。 这并不一定意味着这个方向在使用。

乌云

21.000 ft OVC 乌云密布

温度 & 天气

温度 15 °C
露点 11 °C
相对湿度 77%
Kp-index 2 (0-9)

白天

日出
07:48
中午
13:31
日落
19:14 (7h 11m)

小工具

你想在你的网站上有一个关于Woensdrecht Air Base的当前航空天气(METAR)的小部件吗?

</> 显示HTML代码

我们和第三方通过cookies跟踪您在我们网站上的上网行为。如果您继续,我们认为您同意我们的cookie政策。 了解更多